4XTAB LLHZ-LLHZ

Flight info

Callsign 4XTAB
Flight time 0h 9m
Altitude 800
Route CIRCUITS
Aircraft C172/L-C172/5100

Departure

Time 2026-04-12 18:45
Airport Herzliya Airport (LLHZ)

Arrival

Time 2026-04-12 18:54
Airport Herzliya Airport (LLHZ)
Time Latitude Longitude Altitude Speed Heading
2026-04-12 18:22 32.17898 34.83722 117 ft 0 kts 289°
2026-04-12 18:38 32.17904 34.83702 116 ft 5 kts 289°
2026-04-12 18:38 32.17927 34.83670 115 ft 5 kts 305°
2026-04-12 18:38 32.17947 34.83615 114 ft 9 kts 288°
2026-04-12 18:39 32.17974 34.83524 112 ft 13 kts 290°
2026-04-12 18:39 32.18008 34.83411 108 ft 16 kts 289°
2026-04-12 18:39 32.18046 34.83277 104 ft 18 kts 289°
2026-04-12 18:39 32.18086 34.83145 101 ft 11 kts 287°
2026-04-12 18:40 32.18089 34.83137 101 ft 0 kts 290°
2026-04-12 18:40 32.18089 34.83136 101 ft 1 kts 290°
2026-04-12 18:40 32.18106 34.83080 99 ft 3 kts 289°
2026-04-12 18:41 32.18123 34.83067 99 ft 0 kts
2026-04-12 18:43 32.18138 34.83089 100 ft 0 kts 104°
2026-04-12 18:44 32.18137 34.83090 100 ft 1 kts 104°
2026-04-12 18:44 32.18074 34.83301 104 ft 54 kts 108°
2026-04-12 18:44 32.17910 34.83832 200 ft 75 kts 110°
2026-04-12 18:44 32.17737 34.84425 400 ft 77 kts 105°
2026-04-12 18:45 32.17590 34.85043 599 ft 79 kts 102°
2026-04-12 18:45 32.17476 34.85693 726 ft 83 kts 97°
2026-04-12 18:45 32.17715 34.86249 788 ft 87 kts 22°
2026-04-12 18:45 32.18273 34.86490 896 ft 84 kts 12°
2026-04-12 18:46 32.18827 34.86375 827 ft 94 kts 306°
2026-04-12 18:46 32.19061 34.85684 859 ft 89 kts 294°
2026-04-12 18:46 32.19353 34.85049 856 ft 88 kts 296°
2026-04-12 18:46 32.19615 34.84393 831 ft 87 kts 293°
2026-04-12 18:47 32.19856 34.83729 775 ft 88 kts 292°
2026-04-12 18:47 32.20094 34.83063 667 ft 87 kts 292°
2026-04-12 18:47 32.20243 34.82393 581 ft 83 kts 257°
2026-04-12 18:47 32.19807 34.82016 465 ft 83 kts 194°
2026-04-12 18:48 32.19277 34.81868 443 ft 74 kts 193°
2026-04-12 18:48 32.18782 34.81816 396 ft 69 kts 150°
2026-04-12 18:48 32.18458 34.82216 311 ft 68 kts 121°
2026-04-12 18:48 32.18241 34.82723 163 ft 72 kts 109°
2026-04-12 18:49 32.18077 34.83276 143 ft 78 kts 110°
2026-04-12 18:49 32.17866 34.83916 272 ft 89 kts 106°
2026-04-12 18:49 32.17695 34.84578 528 ft 81 kts 102°
2026-04-12 18:49 32.17562 34.85237 709 ft 84 kts 102°
2026-04-12 18:50 32.17462 34.85915 811 ft 84 kts 84°
2026-04-12 18:50 32.17862 34.86370 870 ft 88 kts 20°
2026-04-12 18:50 32.18463 34.86596 935 ft 90 kts 15°
2026-04-12 18:50 32.19015 34.86393 945 ft 91 kts 302°
2026-04-12 18:51 32.19284 34.85700 908 ft 96 kts 294°
2026-04-12 18:51 32.19570 34.84988 839 ft 94 kts 295°
2026-04-12 18:51 32.19856 34.84312 787 ft 90 kts 295°
2026-04-12 18:51 32.20109 34.83662 757 ft 85 kts 295°
2026-04-12 18:52 32.20385 34.83030 687 ft 85 kts 295°
2026-04-12 18:52 32.20578 34.82444 705 ft 67 kts 271°
2026-04-12 18:52 32.20231 34.82147 637 ft 66 kts 202°
2026-04-12 18:52 32.19808 34.81905 582 ft 64 kts 211°
2026-04-12 18:53 32.19408 34.81698 533 ft 63 kts 193°
2026-04-12 18:53 32.18996 34.81533 488 ft 62 kts 201°
2026-04-12 18:53 32.18588 34.81446 440 ft 60 kts 147°
2026-04-12 18:53 32.18457 34.81899 361 ft 58 kts 107°
2026-04-12 18:54 32.18348 34.82350 250 ft 59 kts 104°
2026-04-12 18:54 32.18222 34.82793 152 ft 57 kts 107°
2026-04-12 18:54 32.18102 34.83208 102 ft 49 kts 110°
2026-04-12 18:54 32.17939 34.83691 183 ft 71 kts 113°
2026-04-12 18:55 32.17716 34.84194 403 ft 69 kts 121°
2026-04-12 18:55 32.17483 34.84719 586 ft 73 kts 102°
2026-04-12 18:55 32.17716 34.85209 721 ft 81 kts 29°
2026-04-12 18:55 32.18221 34.85493 848 ft 78 kts 17°
2026-04-12 18:56 32.18738 34.85645 907 ft 82 kts
2026-04-12 18:56 32.19159 34.85298 930 ft 86 kts 299°
2026-04-12 18:56 32.19470 34.84637 842 ft 92 kts 302°
2026-04-12 18:56 32.19798 34.84014 869 ft 86 kts 301°
2026-04-12 18:57 32.20101 34.83406 851 ft 82 kts 298°
2026-04-12 18:57 32.20324 34.82818 828 ft 76 kts 290°
2026-04-12 18:57 32.20378 34.82247 811 ft 69 kts 225°
2026-04-12 18:57 32.19935 34.82012 778 ft 68 kts 197°
2026-04-12 18:58 32.19480 34.81820 712 ft 65 kts 198°
2026-04-12 18:58 32.19064 34.81717 655 ft 60 kts 183°
2026-04-12 18:58 32.18714 34.81904 565 ft 62 kts 131°
2026-04-12 18:58 32.18440 34.82251 446 ft 63 kts 115°
2026-04-12 18:59 32.18242 34.82731 246 ft 71 kts 105°
2026-04-12 18:59 32.18096 34.83257 186 ft 75 kts 105°
2026-04-12 18:59 32.17910 34.83850 374 ft 79 kts 109°
2026-04-12 18:59 32.17718 34.84441 582 ft 79 kts 110°
2026-04-12 19:00 32.17733 34.85042 714 ft 81 kts 35°
2026-04-12 19:00 32.18295 34.85306 783 ft 90 kts 15°
2026-04-12 19:00 32.18924 34.85385 866 ft 90 kts 332°
2026-04-12 19:00 32.19336 34.84788 851 ft 99 kts 302°
2026-04-12 19:01 32.19693 34.84109 875 ft 97 kts 301°
2026-04-12 19:01 32.20076 34.83429 766 ft 102 kts 303°
2026-04-12 19:01 32.20461 34.82734 710 ft 98 kts 299°
2026-04-12 19:01 32.20349 34.82187 787 ft 76 kts 200°
2026-04-12 19:02 32.19868 34.81918 785 ft 72 kts 202°
2026-04-12 19:02 32.19417 34.81712 773 ft 71 kts 196°
2026-04-12 19:02 32.18964 34.81597 697 ft 73 kts 179°
2026-04-12 19:02 32.18598 34.81892 564 ft 77 kts 132°
2026-04-12 19:03 32.18344 34.82376 405 ft 70 kts 107°